QTR24W KLAX-OTHH
Flight info
| Callsign | QTR24W |
|---|---|
| Flight time | N/A |
| Altitude | 34000 |
| Route | GMN7 EHF J5 FMG/N0494F330 J7 REO/N0487F340 J537 MLP/N0492F330 J540 YQL Q896 MEETO Q959 YVC J540 YZS DCT 65N079W 67N067W/M085F330 69N053W 69N037W 67N023W/M085F350 65N011W 63N005W DCT ERSER/N0492F350 DCT EPOTU DCT PEVEB DCT LAGUM L621 AAL M725 OLPIB/N0489F370 M602 BINKA DCT VABAT L619 ADVAB L623 LENOV DCT RILAS DCT EMPOS DCT APROB DCT ADORU UG80 EKI UW81 YAYLA UL854 KULAR UT39 TOMBI DCT APLON L550 PASOS/N0486F390 G183 TBA DCT GETAN DCT KITOT N697 HIL G662 GAS J874 MUSRI L604 UMENA G663 TABTA L681 ORLEK |
| Aircraft | A35K/H-SDE2E3GHIJ3J4J5LM1ORWXY/LB1D1 |
Departure
| Time | N/A |
|---|---|
| Airport | Los Angeles International Airport (KLAX) |
Arrival
| Time | 2026-05-07 09:13 |
|---|---|
| Airport | Hamad International Airport (OTHH) |
| Time | Latitude | Longitude | Altitude | Speed | Heading |
|---|---|---|---|---|---|
| 2026-05-07 08:52 | 25.86076 | 49.70956 | 38879 ft | 542 kts | 131° |
| 2026-05-07 08:53 | 25.82031 | 49.77355 | 38880 ft | 538 kts | 131° |
| 2026-05-07 08:53 | 25.77819 | 49.84021 | 38644 ft | 525 kts | 131° |
| 2026-05-07 08:54 | 25.75709 | 49.87351 | 37839 ft | 528 kts | 131° |
| 2026-05-07 08:54 | 25.73584 | 49.90694 | 37021 ft | 530 kts | 131° |
| 2026-05-07 08:54 | 25.71454 | 49.94043 | 36291 ft | 531 kts | 131° |
| 2026-05-07 08:54 | 25.69319 | 49.97399 | 35556 ft | 532 kts | 131° |
| 2026-05-07 08:55 | 25.67191 | 50.00746 | 34832 ft | 534 kts | 131° |
| 2026-05-07 08:55 | 25.65044 | 50.04120 | 34106 ft | 535 kts | 131° |
| 2026-05-07 08:55 | 25.62894 | 50.07497 | 33311 ft | 535 kts | 131° |
| 2026-05-07 08:55 | 25.60745 | 50.10868 | 32486 ft | 536 kts | 131° |
| 2026-05-07 08:56 | 25.58601 | 50.14227 | 31673 ft | 536 kts | 130° |
| 2026-05-07 08:56 | 25.56612 | 50.17725 | 30875 ft | 543 kts | 122° |
| 2026-05-07 08:56 | 25.55121 | 50.21603 | 30074 ft | 547 kts | 115° |
| 2026-05-07 08:56 | 25.53825 | 50.25559 | 29201 ft | 547 kts | 112° |
| 2026-05-07 08:57 | 25.52605 | 50.29556 | 28452 ft | 543 kts | 111° |
| 2026-05-07 08:57 | 25.51434 | 50.33503 | 27798 ft | 538 kts | 111° |
| 2026-05-07 08:57 | 25.50277 | 50.37421 | 27181 ft | 532 kts | 111° |
| 2026-05-07 08:57 | 25.49146 | 50.41228 | 26590 ft | 526 kts | 111° |
| 2026-05-07 08:58 | 25.48000 | 50.45045 | 26018 ft | 520 kts | 111° |
| 2026-05-07 08:58 | 25.46861 | 50.48810 | 25453 ft | 514 kts | 111° |
| 2026-05-07 08:58 | 25.45728 | 50.52531 | 24985 ft | 506 kts | 111° |
| 2026-05-07 08:58 | 25.44593 | 50.56248 | 24407 ft | 501 kts | 110° |
| 2026-05-07 08:59 | 25.43492 | 50.59844 | 23848 ft | 496 kts | 110° |
| 2026-05-07 08:59 | 25.42392 | 50.63428 | 23283 ft | 490 kts | 110° |
| 2026-05-07 08:59 | 25.41216 | 50.66995 | 22607 ft | 484 kts | 112° |
| 2026-05-07 08:59 | 25.40003 | 50.70398 | 21952 ft | 479 kts | 113° |
| 2026-05-07 09:00 | 25.38755 | 50.73803 | 21344 ft | 473 kts | 113° |
| 2026-05-07 09:00 | 25.37526 | 50.77150 | 20727 ft | 469 kts | 113° |
| 2026-05-07 09:00 | 25.36318 | 50.80470 | 20121 ft | 464 kts | 113° |
| 2026-05-07 09:00 | 25.35131 | 50.83768 | 19521 ft | 459 kts | 112° |
| 2026-05-07 09:01 | 25.33959 | 50.87048 | 18885 ft | 455 kts | 112° |
| 2026-05-07 09:01 | 25.32806 | 50.90292 | 18315 ft | 450 kts | 112° |
| 2026-05-07 09:01 | 25.31669 | 50.93491 | 17695 ft | 445 kts | 112° |
| 2026-05-07 09:01 | 25.30546 | 50.96646 | 17063 ft | 439 kts | 112° |
| 2026-05-07 09:02 | 25.29431 | 50.99777 | 16434 ft | 434 kts | 112° |
| 2026-05-07 09:02 | 25.28332 | 51.02863 | 15815 ft | 429 kts | 112° |
| 2026-05-07 09:02 | 25.27352 | 51.05957 | 15211 ft | 424 kts | 104° |
| 2026-05-07 09:02 | 25.26920 | 51.09146 | 14586 ft | 420 kts | 95° |
| 2026-05-07 09:03 | 25.26785 | 51.12368 | 13994 ft | 415 kts | 91° |
| 2026-05-07 09:03 | 25.26781 | 51.15544 | 13349 ft | 412 kts | 89° |
| 2026-05-07 09:03 | 25.26838 | 51.18673 | 12742 ft | 405 kts | 88° |
| 2026-05-07 09:03 | 25.26910 | 51.21777 | 11999 ft | 403 kts | 88° |
| 2026-05-07 09:04 | 25.26880 | 51.24860 | 11313 ft | 400 kts | 95° |
| 2026-05-07 09:04 | 25.26478 | 51.27840 | 10925 ft | 390 kts | 99° |
| 2026-05-07 09:04 | 25.25955 | 51.30739 | 10698 ft | 375 kts | 101° |
| 2026-05-07 09:04 | 25.25392 | 51.33506 | 10496 ft | 362 kts | 102° |
| 2026-05-07 09:05 | 25.24813 | 51.36160 | 10325 ft | 348 kts | 103° |
| 2026-05-07 09:05 | 25.24248 | 51.38691 | 10225 ft | 333 kts | 103° |
| 2026-05-07 09:05 | 25.23711 | 51.41119 | 10100 ft | 319 kts | 102° |
| 2026-05-07 09:05 | 25.23206 | 51.43425 | 10009 ft | 306 kts | 102° |
| 2026-05-07 09:06 | 25.22669 | 51.45665 | 9755 ft | 300 kts | 108° |
| 2026-05-07 09:06 | 25.21683 | 51.47680 | 9388 ft | 299 kts | 127° |
| 2026-05-07 09:06 | 25.20114 | 51.49171 | 9048 ft | 297 kts | 147° |
| 2026-05-07 09:06 | 25.18287 | 51.50223 | 8706 ft | 297 kts | 154° |
| 2026-05-07 09:07 | 25.16387 | 51.51101 | 8375 ft | 294 kts | 157° |
| 2026-05-07 09:07 | 25.14462 | 51.51902 | 8070 ft | 294 kts | 158° |
| 2026-05-07 09:07 | 25.12558 | 51.52675 | 7542 ft | 290 kts | 158° |
| 2026-05-07 09:07 | 25.10668 | 51.53455 | 6786 ft | 290 kts | 158° |
| 2026-05-07 09:08 | 25.08823 | 51.54347 | 6063 ft | 287 kts | 147° |
| 2026-05-07 09:08 | 25.07393 | 51.55819 | 5328 ft | 279 kts | 121° |
| 2026-05-07 09:08 | 25.06812 | 51.57756 | 4811 ft | 265 kts | 93° |
| 2026-05-07 09:08 | 25.07005 | 51.59776 | 4026 ft | 268 kts | 76° |
| 2026-05-07 09:09 | 25.07454 | 51.61738 | 3750 ft | 256 kts | 76° |
| 2026-05-07 09:09 | 25.07859 | 51.63594 | 3654 ft | 244 kts | 77° |
| 2026-05-07 09:09 | 25.08268 | 51.65342 | 3489 ft | 228 kts | 70° |
| 2026-05-07 09:09 | 25.09233 | 51.66731 | 3384 ft | 232 kts | 34° |
| 2026-05-07 09:10 | 25.10756 | 51.67183 | 3147 ft | 231 kts | 356° |
| 2026-05-07 09:10 | 25.12278 | 51.66641 | 2799 ft | 233 kts | 334° |
| 2026-05-07 09:10 | 25.13721 | 51.65820 | 2486 ft | 233 kts | 335° |
| 2026-05-07 09:10 | 25.15189 | 51.65085 | 2159 ft | 228 kts | 338° |
| 2026-05-07 09:11 | 25.16638 | 51.64474 | 1850 ft | 224 kts | 340° |
| 2026-05-07 09:11 | 25.18081 | 51.63844 | 1566 ft | 216 kts | 338° |
| 2026-05-07 09:11 | 25.19419 | 51.63242 | 1295 ft | 203 kts | 338° |
| 2026-05-07 09:11 | 25.20683 | 51.62687 | 1043 ft | 188 kts | 338° |
| 2026-05-07 09:12 | 25.21851 | 51.62172 | 816 ft | 174 kts | 338° |
| 2026-05-07 09:12 | 25.22937 | 51.61689 | 597 ft | 162 kts | 339° |
| 2026-05-07 09:12 | 25.23939 | 51.61245 | 409 ft | 149 kts | 339° |
| 2026-05-07 09:12 | 25.24882 | 51.60834 | 220 ft | 143 kts | 339° |
| 2026-05-07 09:13 | 25.25805 | 51.60424 | 59 ft | 143 kts | 340° |
| 2026-05-07 09:13 | 25.26414 | 51.60159 | 27 ft | 138 kts | 339° |
| 2026-05-07 09:13 | 25.27157 | 51.59837 | 22 ft | 76 kts | 338° |
| 2026-05-07 09:13 | 25.27397 | 51.59731 | 22 ft | 17 kts | 338° |
| 2026-05-07 09:14 | 25.27498 | 51.59741 | 22 ft | 16 kts | 49° |
| 2026-05-07 09:14 | 25.27528 | 51.59848 | 30 ft | 14 kts | 107° |
| 2026-05-07 09:14 | 25.27452 | 51.59910 | 29 ft | 15 kts | 157° |
| 2026-05-07 09:14 | 25.27350 | 51.59955 | 31 ft | 17 kts | 158° |
| 2026-05-07 09:15 | 25.27235 | 51.60007 | 29 ft | 19 kts | 158° |
| 2026-05-07 09:15 | 25.27111 | 51.60061 | 29 ft | 18 kts | 158° |
| 2026-05-07 09:15 | 25.26996 | 51.60112 | 31 ft | 17 kts | 158° |
| 2026-05-07 09:15 | 25.26957 | 51.60211 | 27 ft | 16 kts | 73° |
| 2026-05-07 09:16 | 25.26999 | 51.60328 | 28 ft | 17 kts | 68° |
| 2026-05-07 09:16 | 25.27045 | 51.60456 | 28 ft | 19 kts | 68° |
| 2026-05-07 09:16 | 25.27089 | 51.60574 | 28 ft | 14 kts | 68° |
| 2026-05-07 09:16 | 25.27102 | 51.60645 | 28 ft | 9 kts | 98° |
| 2026-05-07 09:17 | 25.27068 | 51.60708 | 28 ft | 10 kts | 118° |
| 2026-05-07 09:17 | 25.27048 | 51.60781 | 28 ft | 8 kts | 139° |
| 2026-05-07 09:17 | 25.27003 | 51.60806 | 28 ft | 6 kts | 155° |
| 2026-05-07 09:17 | 25.26985 | 51.60814 | 28 ft | 0 kts | 156° |